Aviation Digital Data Service (ADDS)

Output produced by METARs form (2234 UTC 30 March 2017)
found at http://www.aviationweather.gov/adds/metars/
 
FABL 302200Z AUTO 30006KT 9999 ///////// 20/08 Q1026
TAF FABL 302200Z 3100/3124 01005KT CAVOK 
     BECMG 3109/3111 23005KT 
     BECMG 3118/3120 VRB04KT TX30/3113ZTN07/3103Z
       
FACT 302200Z 32013KT 9999 BKN004 17/15 Q1015 NOSIG
TAF FACT 302200Z 3100/0106 36010KT 9999 BKN012 
     PROB40 
     TEMPO 3100/3106 BKN004 
     FM310600 35015KT 9999 SCT012 BKN025 
     PROB40 
     TEMPO 3110/3118 BKN012 
     PROB30 
     TEMPO 3115/3118 4000 -RA 
     FM010300 19007KT 9999 SCT030 TX21/3111ZTN13/0104Z
       
FAEL 301800Z 36006KT 330V030 CAVOK 29/13 Q1010
FAGG 302200Z AUTO 34003KT 9999 R29///// // ////// 16/12 Q1014
TAF FAGG 302200Z 3100/3124 24006KT 9999 SCT008 
     PROB30 
     TEMPO 3100/3103 1500 BCFG BKN006 
     BECMG 3107/3109 SCT020 
     FM311700 23007KT 9999 SCT010 BKN020 
     PROB40 
     TEMPO 3118/3124 4000 -RA BKN008 TX24/3112ZTN16/3104Z
       
FAHS 302200Z AUTO 00000KT //// // ////// 22/14 Q1022
FAKM 302200Z AUTO 35008KT //// // ////// 24/09 Q1024
FALW 302200Z AUTO 36003KT //// // ////// 15/13 Q1017
FALA 302000Z VRB02KT CAVOK 19/14 Q1029 NOSIG
TAF FALA 302200Z 3100/3124 VRB03KT CAVOK 
     BECMG 3107/3109 22006KT 
     BECMG 3122/3124 08006KT TX31/3112ZTN14/3104Z
       
FAOB 302200Z AUTO 35002KT //// // ////// 11/10 Q1014
FAPE 302200Z /////KT CAVOK 23/13 Q1011 NOSIG
TAF FAPE 302200Z 3100/3124 24012KT CAVOK 
     PROB30 
     TEMPO 3114/3118 6000 TSRA FEW080CB 
     BECMG 3116/3118 BKN018 TX25/3112ZTN15/3104Z
       
FAGM 301700Z 33010KT CAVOK 20/17 Q1029
FASI 302200Z AUTO 33003KT //// // ////// 14/13 Q1032
FAUT 302200Z AUTO 09003KT //// // ////// 18/11 Q1018
FAUP 301900Z AUTO 34005KT //// // ////// 26/04 Q1019
TAF FAUP 302200Z 3100/3124 35008KT CAVOK 
     BECMG 3107/3109 30012KT 
     BECMG 3118/3120 19010KT TX36/3113ZTN15/3103Z
       
FAVV 302200Z AUTO /////KT //// // ////// 18/// Q1027
FAWK 302200Z AUTO 00000KT //// // ////// ///// Q1029
FAWB 302200Z AUTO 00000KT //// // ////// 17/14 Q1026